首页
METAR-TAF:

METAR-TAF

机场 :

努瓦克肖特国际机场

努瓦克肖特, 毛里塔尼亚

纬度: 18-18-36N, 经度: 015-58-11W, 海拔: 3米

当前天气观测

该预报发布于42分钟前的13:30 UTC
风速11节,风向西北
温度 27°C
湿度 58%
气压 1013 hPa
能見度: 8000

METAR: GQNO 191330Z 31011KT 8000 NSC 27/18 Q1013 NOSIG

时间: 14:12 (14:12 UTC)

预报

该预报发布于3小时和12分钟前的11:00 UTC
预报有效从19日的 12点(UTC)到 20日的 18点(UTC)
风速12节,风向西北
能見度: 8000

TAF: GQNO 191100Z 1912/2018 32012KT 8000 NSC

超过4000个机场的气象观测和天气预报(METAR&TAF报告)。

可查询的气象台以黄色和红色小点在地图上表示。

将鼠标移到小点上方,可查看气象台名称。

然后点击查看天气观测和预报。

如需切换地图:点击带黑十字的绿色按钮放大地图;点击带横线的绿色按钮缩小地图;或者点击绿色箭头查看邻近地区的地图。


METAR-TAF: